sensor_id;sensor_type;location;lat;lon;timestamp;pressure;altitude;pressure_sealevel;temperature;humidity
13013;BME280;22580;57.670;12.006;2023-04-02T00:01:25;102005.78;;;11.93;38.17
13013;BME280;22580;57.670;12.006;2023-04-02T00:04:15;101999.97;;;11.69;38.64
13013;BME280;22580;57.670;12.006;2023-04-02T00:06:53;102000.53;;;11.92;37.96
13013;BME280;22580;57.670;12.006;2023-04-02T00:09:35;101980.81;;;11.93;38.04
13013;BME280;22580;57.670;12.006;2023-04-02T00:12:19;101938.09;;;11.58;37.75
13013;BME280;22580;57.670;12.006;2023-04-02T00:14:53;102032.97;;;12.33;37.95
13013;BME280;22580;57.670;12.006;2023-04-02T00:17:23;102006.41;;;11.98;37.81
13013;BME280;22580;57.670;12.006;2023-04-02T00:19:53;102027.75;;;11.84;38.00
13013;BME280;22580;57.670;12.006;2023-04-02T00:22:33;102043.84;;;11.67;38.69
13013;BME280;22580;57.670;12.006;2023-04-02T00:25:22;102044.53;;;11.70;38.89
13013;BME280;22580;57.670;12.006;2023-04-02T00:28:03;102046.16;;;11.90;38.63
13013;BME280;22580;57.670;12.006;2023-04-02T00:30:34;102054.53;;;11.84;38.38
13013;BME280;22580;57.670;12.006;2023-04-02T00:33:31;102002.09;;;11.47;38.80
13013;BME280;22580;57.670;12.006;2023-04-02T00:36:05;102063.97;;;11.58;38.75
13013;BME280;22580;57.670;12.006;2023-04-02T00:38:42;102059.81;;;11.86;38.70
13013;BME280;22580;57.670;12.006;2023-04-02T00:41:14;102068.72;;;11.86;38.55
13013;BME280;22580;57.670;12.006;2023-04-02T00:43:54;102070.00;;;11.79;38.73
13013;BME280;22580;57.670;12.006;2023-04-02T00:46:32;102071.75;;;12.11;38.20
13013;BME280;22580;57.670;12.006;2023-04-02T00:49:22;101977.88;;;11.33;38.47
13013;BME280;22580;57.670;12.006;2023-04-02T00:51:54;102023.13;;;11.70;38.20
13013;BME280;22580;57.670;12.006;2023-04-02T00:54:43;102047.72;;;11.28;39.05
13013;BME280;22580;57.670;12.006;2023-04-02T00:57:16;102062.41;;;11.21;39.37
13013;BME280;22580;57.670;12.006;2023-04-02T01:00:17;102050.22;;;10.64;39.84
13013;BME280;22580;57.670;12.006;2023-04-02T01:06:03;102103.66;;;11.00;40.31
13013;BME280;22580;57.670;12.006;2023-04-02T01:09:02;102058.88;;;10.69;40.42
13013;BME280;22580;57.670;12.006;2023-04-02T01:11:53;102114.28;;;11.19;40.14
13013;BME280;22580;57.670;12.006;2023-04-02T01:14:46;102105.31;;;11.02;40.22
13013;BME280;22580;57.670;12.006;2023-04-02T01:17:35;102091.47;;;11.11;40.09
13013;BME280;22580;57.670;12.006;2023-04-02T01:23:36;102069.66;;;10.84;40.74
13013;BME280;22580;57.670;12.006;2023-04-02T01:26:35;102104.47;;;11.02;40.27
13013;BME280;22580;57.670;12.006;2023-04-02T01:29:14;102128.41;;;10.69;41.18
13013;BME280;22580;57.670;12.006;2023-04-02T01:31:56;102129.88;;;10.93;41.06
13013;BME280;22580;57.670;12.006;2023-04-02T01:34:52;102097.38;;;10.47;41.10
13013;BME280;22580;57.670;12.006;2023-04-02T01:37:31;102097.53;;;10.44;41.97
13013;BME280;22580;57.670;12.006;2023-04-02T01:40:34;102143.31;;;10.56;41.95
13013;BME280;22580;57.670;12.006;2023-04-02T01:43:15;102143.78;;;10.82;41.39
13013;BME280;22580;57.670;12.006;2023-04-02T01:46:24;102094.94;;;10.43;41.46
13013;BME280;22580;57.670;12.006;2023-04-02T01:48:53;102148.66;;;10.56;41.74
13013;BME280;22580;57.670;12.006;2023-04-02T01:51:41;102146.16;;;10.52;41.84
13013;BME280;22580;57.670;12.006;2023-04-02T01:54:09;102152.81;;;10.80;41.50
13013;BME280;22580;57.670;12.006;2023-04-02T01:56:43;102148.22;;;10.65;41.51
13013;BME280;22580;57.670;12.006;2023-04-02T01:59:12;102118.84;;;10.46;41.75
13013;BME280;22580;57.670;12.006;2023-04-02T02:01:44;102154.78;;;10.76;41.07
13013;BME280;22580;57.670;12.006;2023-04-02T02:04:21;102168.47;;;10.14;42.43
13013;BME280;22580;57.670;12.006;2023-04-02T02:06:51;102154.91;;;10.18;42.26
13013;BME280;22580;57.670;12.006;2023-04-02T02:09:22;102170.63;;;9.67;43.34
13013;BME280;22580;57.670;12.006;2023-04-02T02:11:51;102174.69;;;9.75;43.65
13013;BME280;22580;57.670;12.006;2023-04-02T02:14:22;102170.41;;;9.92;43.42
13013;BME280;22580;57.670;12.006;2023-04-02T02:16:52;102175.88;;;9.89;43.47
13013;BME280;22580;57.670;12.006;2023-04-02T02:19:26;102183.03;;;9.68;43.96
13013;BME280;22580;57.670;12.006;2023-04-02T02:22:13;102187.56;;;9.86;43.82
13013;BME280;22580;57.670;12.006;2023-04-02T02:24:51;102100.53;;;9.43;43.94
13013;BME280;22580;57.670;12.006;2023-04-02T02:27:48;102154.50;;;10.28;42.52
13013;BME280;22580;57.670;12.006;2023-04-02T02:30:25;102184.84;;;10.27;42.70
13013;BME280;22580;57.670;12.006;2023-04-02T02:33:13;102200.19;;;10.59;42.22
13013;BME280;22580;57.670;12.006;2023-04-02T02:35:54;102177.53;;;10.30;42.56
13013;BME280;22580;57.670;12.006;2023-04-02T02:38:42;102203.56;;;10.81;41.59
13013;BME280;22580;57.670;12.006;2023-04-02T02:41:25;102176.69;;;9.91;42.88
13013;BME280;22580;57.670;12.006;2023-04-02T02:44:14;102210.28;;;10.35;42.87
13013;BME280;22580;57.670;12.006;2023-04-02T02:47:12;102213.91;;;10.14;42.96
13013;BME280;22580;57.670;12.006;2023-04-02T02:49:50;102213.75;;;8.95;46.04
13013;BME280;22580;57.670;12.006;2023-04-02T02:52:25;102225.59;;;9.52;45.15
13013;BME280;22580;57.670;12.006;2023-04-02T02:54:55;102228.84;;;9.79;44.66
13013;BME280;22580;57.670;12.006;2023-04-02T02:57:34;102240.47;;;9.15;46.28
13013;BME280;22580;57.670;12.006;2023-04-02T03:00:25;102165.44;;;8.81;46.19
13013;BME280;22580;57.670;12.006;2023-04-02T03:03:23;102246.63;;;9.17;46.09
13013;BME280;22580;57.670;12.006;2023-04-02T03:06:14;102258.78;;;9.25;46.31
13013;BME280;22580;57.670;12.006;2023-04-02T03:08:57;102204.13;;;8.69;47.17
13013;BME280;22580;57.670;12.006;2023-04-02T03:11:41;102218.66;;;8.62;47.46
13013;BME280;22580;57.670;12.006;2023-04-02T03:14:19;102242.47;;;8.88;47.73
13013;BME280;22580;57.670;12.006;2023-04-02T03:16:55;102251.91;;;8.97;47.75
13013;BME280;22580;57.670;12.006;2023-04-02T03:19:35;102264.16;;;8.79;48.21
13013;BME280;22580;57.670;12.006;2023-04-02T03:22:22;102230.81;;;9.13;47.02
13013;BME280;22580;57.670;12.006;2023-04-02T03:25:04;102268.00;;;9.38;46.93
13013;BME280;22580;57.670;12.006;2023-04-02T03:27:45;102282.06;;;8.76;47.85
13013;BME280;22580;57.670;12.006;2023-04-02T03:30:33;102283.91;;;9.41;47.00
13013;BME280;22580;57.670;12.006;2023-04-02T03:33:22;102272.38;;;9.18;46.99
13013;BME280;22580;57.670;12.006;2023-04-02T03:35:56;102292.34;;;9.08;47.35
13013;BME280;22580;57.670;12.006;2023-04-02T03:38:30;102293.28;;;9.07;47.72
13013;BME280;22580;57.670;12.006;2023-04-02T03:41:02;102291.28;;;9.12;47.49
13013;BME280;22580;57.670;12.006;2023-04-02T03:43:33;102290.31;;;8.70;48.70
13013;BME280;22580;57.670;12.006;2023-04-02T03:46:17;102314.84;;;8.56;49.64
13013;BME280;22580;57.670;12.006;2023-04-02T03:48:52;102310.56;;;8.97;48.72
13013;BME280;22580;57.670;12.006;2023-04-02T03:51:22;102307.50;;;9.08;48.69
13013;BME280;22580;57.670;12.006;2023-04-02T03:54:12;102269.09;;;8.67;48.99
13013;BME280;22580;57.670;12.006;2023-04-02T03:56:43;102313.56;;;9.11;48.64
13013;BME280;22580;57.670;12.006;2023-04-02T03:59:15;102266.94;;;8.76;49.04
13013;BME280;22580;57.670;12.006;2023-04-02T04:01:54;102317.50;;;8.33;50.07
13013;BME280;22580;57.670;12.006;2023-04-02T04:04:43;102329.66;;;8.86;49.53
13013;BME280;22580;57.670;12.006;2023-04-02T04:07:21;102332.44;;;9.07;49.28
13013;BME280;22580;57.670;12.006;2023-04-02T04:10:24;102328.66;;;9.12;48.75
13013;BME280;22580;57.670;12.006;2023-04-02T04:13:05;102315.88;;;9.20;47.73
13013;BME280;22580;57.670;12.006;2023-04-02T04:15:40;102312.59;;;9.36;47.45
13013;BME280;22580;57.670;12.006;2023-04-02T04:18:16;102348.78;;;9.43;47.70
13013;BME280;22580;57.670;12.006;2023-04-02T04:20:52;102326.47;;;9.44;47.01
13013;BME280;22580;57.670;12.006;2023-04-02T04:23:31;102358.00;;;9.34;47.43
13013;BME280;22580;57.670;12.006;2023-04-02T04:26:04;102307.81;;;9.22;46.30
13013;BME280;22580;57.670;12.006;2023-04-02T04:28:53;102311.66;;;9.15;46.64
13013;BME280;22580;57.670;12.006;2023-04-02T04:31:35;102319.22;;;9.04;46.85
13013;BME280;22580;57.670;12.006;2023-04-02T04:34:16;102266.47;;;8.43;47.15
13013;BME280;22580;57.670;12.006;2023-04-02T04:37:05;102330.59;;;8.85;46.78
13013;BME280;22580;57.670;12.006;2023-04-02T04:40:15;102307.50;;;8.39;47.60
13013;BME280;22580;57.670;12.006;2023-04-02T04:42:55;102390.69;;;8.71;48.25
13013;BME280;22580;57.670;12.006;2023-04-02T04:45:43;102354.88;;;8.78;47.52
13013;BME280;22580;57.670;12.006;2023-04-02T04:51:19;102400.88;;;9.73;45.84
13013;BME280;22580;57.670;12.006;2023-04-02T04:53:53;102399.13;;;9.52;45.79
13013;BME280;22580;57.670;12.006;2023-04-02T04:56:25;102386.31;;;9.38;45.60
13013;BME280;22580;57.670;12.006;2023-04-02T05:02:05;102406.34;;;9.92;44.27
13013;BME280;22580;57.670;12.006;2023-04-02T05:07:35;102416.97;;;9.94;44.51
13013;BME280;22580;57.670;12.006;2023-04-02T05:10:16;102431.19;;;9.05;45.67
13013;BME280;22580;57.670;12.006;2023-04-02T05:12:51;102427.03;;;9.43;44.60
13013;BME280;22580;57.670;12.006;2023-04-02T05:15:24;102429.53;;;9.48;44.53
13013;BME280;22580;57.670;12.006;2023-04-02T05:18:13;102414.84;;;9.58;44.59
13013;BME280;22580;57.670;12.006;2023-04-02T05:20:54;102417.22;;;9.88;43.67
13013;BME280;22580;57.670;12.006;2023-04-02T05:23:44;102403.66;;;9.92;43.30
13013;BME280;22580;57.670;12.006;2023-04-02T05:26:24;102434.53;;;10.41;42.54
13013;BME280;22580;57.670;12.006;2023-04-02T05:29:07;102436.84;;;9.86;43.35
13013;BME280;22580;57.670;12.006;2023-04-02T05:31:44;102459.13;;;9.64;43.48
13013;BME280;22580;57.670;12.006;2023-04-02T05:34:24;102450.78;;;9.51;44.22
13013;BME280;22580;57.670;12.006;2023-04-02T05:36:51;102413.75;;;9.64;43.21
13013;BME280;22580;57.670;12.006;2023-04-02T05:39:24;102458.50;;;10.01;43.21
13013;BME280;22580;57.670;12.006;2023-04-02T05:42:03;102383.63;;;8.93;43.74
13013;BME280;22580;57.670;12.006;2023-04-02T05:44:35;102427.09;;;9.85;42.44
13013;BME280;22580;57.670;12.006;2023-04-02T05:47:23;102479.75;;;9.60;42.74
13013;BME280;22580;57.670;12.006;2023-04-02T05:50:18;102492.69;;;10.14;42.50
13013;BME280;22580;57.670;12.006;2023-04-02T05:52:55;102470.22;;;10.20;40.71
13013;BME280;22580;57.670;12.006;2023-04-02T05:55:42;102494.41;;;10.58;40.49
13013;BME280;22580;57.670;12.006;2023-04-02T05:58:18;102505.50;;;10.28;40.54
13013;BME280;22580;57.670;12.006;2023-04-02T06:01:14;102514.44;;;9.60;40.89
13013;BME280;22580;57.670;12.006;2023-04-02T06:04:05;102505.25;;;10.34;39.83
13013;BME280;22580;57.670;12.006;2023-04-02T06:07:04;102412.50;;;10.14;39.78
13013;BME280;22580;57.670;12.006;2023-04-02T06:09:45;102453.75;;;10.90;38.88
13013;BME280;22580;57.670;12.006;2023-04-02T06:12:34;102521.03;;;10.81;37.74
13013;BME280;22580;57.670;12.006;2023-04-02T06:15:15;102520.88;;;10.43;38.66
13013;BME280;22580;57.670;12.006;2023-04-02T06:17:51;102518.22;;;9.78;38.96
13013;BME280;22580;57.670;12.006;2023-04-02T06:20:22;102521.22;;;10.14;38.25
13013;BME280;22580;57.670;12.006;2023-04-02T06:22:55;102528.72;;;10.68;37.78
13013;BME280;22580;57.670;12.006;2023-04-02T06:25:44;102532.88;;;10.96;37.26
13013;BME280;22580;57.670;12.006;2023-04-02T06:28:25;102536.06;;;10.43;37.15
13013;BME280;22580;57.670;12.006;2023-04-02T06:31:14;102528.78;;;10.46;37.28
13013;BME280;22580;57.670;12.006;2023-04-02T06:34:02;102527.53;;;11.72;35.82
13013;BME280;22580;57.670;12.006;2023-04-02T06:36:33;102542.56;;;11.37;35.28
13013;BME280;22580;57.670;12.006;2023-04-02T06:39:05;102546.19;;;11.94;34.57
13013;BME280;22580;57.670;12.006;2023-04-02T06:41:41;102541.28;;;12.38;33.93
13013;BME280;22580;57.670;12.006;2023-04-02T06:44:13;102487.72;;;11.46;33.62
13013;BME280;22580;57.670;12.006;2023-04-02T06:46:56;102554.34;;;12.10;33.53
13013;BME280;22580;57.670;12.006;2023-04-02T06:49:29;102557.34;;;11.46;32.85
13013;BME280;22580;57.670;12.006;2023-04-02T06:52:07;102545.16;;;11.97;32.28
13013;BME280;22580;57.670;12.006;2023-04-02T06:54:43;102554.13;;;12.32;31.93
13013;BME280;22580;57.670;12.006;2023-04-02T06:57:11;102571.41;;;12.26;31.70
13013;BME280;22580;57.670;12.006;2023-04-02T06:59:39;102517.28;;;12.18;30.85
13013;BME280;22580;57.670;12.006;2023-04-02T07:02:22;102576.34;;;12.53;30.22
13013;BME280;22580;57.670;12.006;2023-04-02T07:05:05;102564.31;;;13.11;29.74
13013;BME280;22580;57.670;12.006;2023-04-02T07:07:42;102569.22;;;11.79;29.67
13013;BME280;22580;57.670;12.006;2023-04-02T07:10:13;102565.16;;;12.79;29.66
13013;BME280;22580;57.670;12.006;2023-04-02T07:12:42;102567.31;;;12.36;28.74
13013;BME280;22580;57.670;12.006;2023-04-02T07:15:14;102577.16;;;12.89;28.59
13013;BME280;22580;57.670;12.006;2023-04-02T07:17:42;102589.59;;;13.42;27.60
13013;BME280;22580;57.670;12.006;2023-04-02T07:20:24;102566.56;;;13.54;28.15
13013;BME280;22580;57.670;12.006;2023-04-02T07:23:02;102584.81;;;13.64;27.80
13013;BME280;22580;57.670;12.006;2023-04-02T07:25:33;102560.31;;;13.03;28.10
13013;BME280;22580;57.670;12.006;2023-04-02T07:28:04;102591.59;;;13.04;27.34
13013;BME280;22580;57.670;12.006;2023-04-02T07:30:31;102597.31;;;13.81;27.32
13013;BME280;22580;57.670;12.006;2023-04-02T07:33:03;102586.81;;;14.08;27.12
13013;BME280;22580;57.670;12.006;2023-04-02T07:35:31;102562.97;;;13.86;25.88
13013;BME280;22580;57.670;12.006;2023-04-02T07:38:07;102607.66;;;14.52;26.17
13013;BME280;22580;57.670;12.006;2023-04-02T07:40:44;102618.06;;;14.42;25.08
13013;BME280;22580;57.670;12.006;2023-04-02T07:43:11;102624.72;;;14.19;26.17
13013;BME280;22580;57.670;12.006;2023-04-02T07:45:43;102625.78;;;13.85;25.24
13013;BME280;22580;57.670;12.006;2023-04-02T07:48:12;102611.00;;;13.43;25.86
13013;BME280;22580;57.670;12.006;2023-04-02T07:50:41;102614.47;;;12.59;26.08
13013;BME280;22580;57.670;12.006;2023-04-02T07:53:24;102626.72;;;12.65;25.98
13013;BME280;22580;57.670;12.006;2023-04-02T07:56:03;102638.81;;;13.08;25.26
13013;BME280;22580;57.670;12.006;2023-04-02T07:58:32;102631.25;;;13.16;26.08
13013;BME280;22580;57.670;12.006;2023-04-02T08:01:16;102643.44;;;12.15;26.59
13013;BME280;22580;57.670;12.006;2023-04-02T08:04:23;102609.91;;;11.88;26.80
13013;BME280;22580;57.670;12.006;2023-04-02T08:06:52;102626.28;;;12.55;27.33
13013;BME280;22580;57.670;12.006;2023-04-02T08:09:22;102573.53;;;12.73;26.46
13013;BME280;22580;57.670;12.006;2023-04-02T08:11:53;102639.91;;;13.04;27.32
13013;BME280;22580;57.670;12.006;2023-04-02T08:14:20;102656.16;;;13.01;25.48
13013;BME280;22580;57.670;12.006;2023-04-02T08:16:54;102664.28;;;13.86;28.26
13013;BME280;22580;57.670;12.006;2023-04-02T08:19:21;102661.59;;;14.17;24.95
13013;BME280;22580;57.670;12.006;2023-04-02T08:21:52;102659.47;;;15.31;23.98
13013;BME280;22580;57.670;12.006;2023-04-02T08:24:35;102662.47;;;15.11;23.01
13013;BME280;22580;57.670;12.006;2023-04-02T08:27:13;102653.59;;;14.79;23.42
13013;BME280;22580;57.670;12.006;2023-04-02T08:29:40;102670.72;;;14.15;23.94
13013;BME280;22580;57.670;12.006;2023-04-02T08:32:18;102633.00;;;14.48;24.05
13013;BME280;22580;57.670;12.006;2023-04-02T08:34:53;102608.06;;;14.28;23.75
13013;BME280;22580;57.670;12.006;2023-04-02T08:37:23;102668.75;;;15.55;23.54
13013;BME280;22580;57.670;12.006;2023-04-02T08:39:52;102685.03;;;15.24;22.68
13013;BME280;22580;57.670;12.006;2023-04-02T08:42:36;102670.09;;;15.62;22.52
13013;BME280;22580;57.670;12.006;2023-04-02T08:45:23;102621.97;;;15.56;22.13
13013;BME280;22580;57.670;12.006;2023-04-02T08:48:02;102686.41;;;16.03;22.43
13013;BME280;22580;57.670;12.006;2023-04-02T08:50:33;102679.28;;;15.60;22.10
13013;BME280;22580;57.670;12.006;2023-04-02T08:53:03;102664.94;;;15.59;22.17
13013;BME280;22580;57.670;12.006;2023-04-02T08:55:43;102684.84;;;15.71;22.40
13013;BME280;22580;57.670;12.006;2023-04-02T08:58:25;102648.06;;;15.98;22.60
13013;BME280;22580;57.670;12.006;2023-04-02T09:01:02;102666.94;;;15.98;23.23
13013;BME280;22580;57.670;12.006;2023-04-02T09:04:23;102621.09;;;15.70;22.17
13013;BME280;22580;57.670;12.006;2023-04-02T09:06:33;102697.56;;;15.69;22.31
13013;BME280;22580;57.670;12.006;2023-04-02T09:09:01;102695.47;;;16.17;22.65
13013;BME280;22580;57.670;12.006;2023-04-02T09:11:34;102699.19;;;15.71;22.54
13013;BME280;22580;57.670;12.006;2023-04-02T09:14:15;102693.53;;;16.19;21.92
13013;BME280;22580;57.670;12.006;2023-04-02T09:17:04;102632.84;;;14.81;23.07
13013;BME280;22580;57.670;12.006;2023-04-02T09:19:52;102705.88;;;15.94;22.64
13013;BME280;22580;57.670;12.006;2023-04-02T09:22:23;102721.31;;;15.48;22.46
13013;BME280;22580;57.670;12.006;2023-04-02T09:24:52;102675.72;;;14.05;23.22
13013;BME280;22580;57.670;12.006;2023-04-02T09:27:22;102720.13;;;15.96;23.76
13013;BME280;22580;57.670;12.006;2023-04-02T09:29:53;102718.97;;;16.29;21.87
13013;BME280;22580;57.670;12.006;2023-04-02T09:32:44;102737.00;;;15.56;22.40
13013;BME280;22580;57.670;12.006;2023-04-02T09:35:19;102701.06;;;14.65;22.81
13013;BME280;22580;57.670;12.006;2023-04-02T09:40:57;102697.69;;;15.96;22.55
13013;BME280;22580;57.670;12.006;2023-04-02T09:43:33;102740.56;;;16.00;21.66
13013;BME280;22580;57.670;12.006;2023-04-02T09:46:03;102741.19;;;16.47;20.99
13013;BME280;22580;57.670;12.006;2023-04-02T09:48:33;102719.63;;;15.31;20.96
13013;BME280;22580;57.670;12.006;2023-04-02T09:51:13;102754.25;;;14.76;21.69
13013;BME280;22580;57.670;12.006;2023-04-02T09:53:42;102737.84;;;15.42;21.75
13013;BME280;22580;57.670;12.006;2023-04-02T09:56:15;102764.94;;;15.55;21.77
13013;BME280;22580;57.670;12.006;2023-04-02T09:59:03;102749.03;;;16.23;21.35
13013;BME280;22580;57.670;12.006;2023-04-02T10:01:35;102758.25;;;15.00;21.63
13013;BME280;22580;57.670;12.006;2023-04-02T10:04:35;102754.47;;;14.73;22.34
13013;BME280;22580;57.670;12.006;2023-04-02T10:07:35;102767.22;;;14.54;22.34
13013;BME280;22580;57.670;12.006;2023-04-02T10:10:17;102772.63;;;15.31;22.36
13013;BME280;22580;57.670;12.006;2023-04-02T10:12:49;102782.34;;;14.39;22.52
13013;BME280;22580;57.670;12.006;2023-04-02T10:15:45;102781.81;;;14.97;22.32
13013;BME280;22580;57.670;12.006;2023-04-02T10:18:35;102709.19;;;15.25;22.90
13013;BME280;22580;57.670;12.006;2023-04-02T10:21:15;102747.44;;;14.70;22.67
13013;BME280;22580;57.670;12.006;2023-04-02T10:23:50;102782.03;;;15.24;22.52
13013;BME280;22580;57.670;12.006;2023-04-02T10:26:37;102755.19;;;15.82;21.90
13013;BME280;22580;57.670;12.006;2023-04-02T10:29:25;102783.84;;;16.42;21.90
13013;BME280;22580;57.670;12.006;2023-04-02T10:32:04;102777.75;;;16.66;21.50
13013;BME280;22580;57.670;12.006;2023-04-02T10:34:41;102781.16;;;15.39;21.62
13013;BME280;22580;57.670;12.006;2023-04-02T10:40:17;102802.03;;;15.95;21.86
13013;BME280;22580;57.670;12.006;2023-04-02T10:42:52;102796.06;;;16.04;21.84
13013;BME280;22580;57.670;12.006;2023-04-02T10:45:38;102776.50;;;16.01;22.33
13013;BME280;22580;57.670;12.006;2023-04-02T10:48:12;102815.66;;;15.48;22.45
13013;BME280;22580;57.670;12.006;2023-04-02T10:51:00;102794.75;;;15.82;21.69
13013;BME280;22580;57.670;12.006;2023-04-02T10:53:36;102818.84;;;15.55;22.53
13013;BME280;22580;57.670;12.006;2023-04-02T10:56:11;102808.44;;;15.79;23.01
13013;BME280;22580;57.670;12.006;2023-04-02T10:58:48;102799.19;;;15.07;22.84
13013;BME280;22580;57.670;12.006;2023-04-02T11:01:22;102805.28;;;15.86;22.50
13013;BME280;22580;57.670;12.006;2023-04-02T11:03:56;102816.44;;;17.08;23.09
13013;BME280;22580;57.670;12.006;2023-04-02T11:06:43;102797.34;;;17.90;21.29
13013;BME280;22580;57.670;12.006;2023-04-02T11:09:16;102797.56;;;18.25;21.29
13013;BME280;22580;57.670;12.006;2023-04-02T11:11:50;102801.00;;;18.78;20.68
13013;BME280;22580;57.670;12.006;2023-04-02T11:14:22;102806.19;;;18.56;20.65
13013;BME280;22580;57.670;12.006;2023-04-02T11:16:54;102790.06;;;18.54;20.71
13013;BME280;22580;57.670;12.006;2023-04-02T11:19:43;102807.63;;;18.49;20.23
13013;BME280;22580;57.670;12.006;2023-04-02T11:22:16;102820.28;;;18.35;20.96
13013;BME280;22580;57.670;12.006;2023-04-02T11:24:45;102817.03;;;18.56;20.94
13013;BME280;22580;57.670;12.006;2023-04-02T11:27:25;102805.84;;;18.86;20.42
13013;BME280;22580;57.670;12.006;2023-04-02T11:30:04;102804.84;;;18.12;20.15
13013;BME280;22580;57.670;12.006;2023-04-02T11:32:41;102818.00;;;17.52;20.96
13013;BME280;22580;57.670;12.006;2023-04-02T11:35:36;102836.16;;;15.51;22.52
13013;BME280;22580;57.670;12.006;2023-04-02T11:44:34;102826.78;;;18.20;21.19
13013;BME280;22580;57.670;12.006;2023-04-02T11:47:15;102845.63;;;17.30;21.29
13013;BME280;22580;57.670;12.006;2023-04-02T11:50:02;102826.94;;;15.85;21.92
13013;BME280;22580;57.670;12.006;2023-04-02T11:52:37;102832.31;;;17.93;21.78
13013;BME280;22580;57.670;12.006;2023-04-02T11:55:32;102748.97;;;17.46;21.58
13013;BME280;22580;57.670;12.006;2023-04-02T11:58:33;102838.06;;;18.52;20.33
13013;BME280;22580;57.670;12.006;2023-04-02T12:01:34;102845.56;;;18.11;20.87
13013;BME280;22580;57.670;12.006;2023-04-02T12:04:25;102838.94;;;18.53;20.40
13013;BME280;22580;57.670;12.006;2023-04-02T12:10:10;102851.38;;;17.92;20.72
13013;BME280;22580;57.670;12.006;2023-04-02T12:12:52;102853.56;;;18.38;20.53
13013;BME280;22580;57.670;12.006;2023-04-02T12:15:43;102853.88;;;18.84;19.96
13013;BME280;22580;57.670;12.006;2023-04-02T12:21:02;102817.03;;;18.56;20.01
13013;BME280;22580;57.670;12.006;2023-04-02T12:23:34;102819.75;;;17.92;19.63
13013;BME280;22580;57.670;12.006;2023-04-02T12:26:35;102807.06;;;18.56;19.77
13013;BME280;22580;57.670;12.006;2023-04-02T12:29:33;102780.66;;;17.71;19.97
13013;BME280;22580;57.670;12.006;2023-04-02T12:32:24;102824.50;;;17.89;20.16
13013;BME280;22580;57.670;12.006;2023-04-02T12:35:03;102838.81;;;18.29;19.93
13013;BME280;22580;57.670;12.006;2023-04-02T12:37:41;102844.78;;;17.29;20.19
13013;BME280;22580;57.670;12.006;2023-04-02T12:40:16;102877.63;;;17.77;20.01
13013;BME280;22580;57.670;12.006;2023-04-02T12:42:51;102830.28;;;17.97;20.50
13013;BME280;22580;57.670;12.006;2023-04-02T12:45:23;102866.75;;;18.93;19.35
13013;BME280;22580;57.670;12.006;2023-04-02T12:47:52;102799.84;;;18.06;20.39
13013;BME280;22580;57.670;12.006;2023-04-02T12:50:23;102831.22;;;18.59;19.51
13013;BME280;22580;57.670;12.006;2023-04-02T12:53:27;102859.09;;;18.61;19.93
13013;BME280;22580;57.670;12.006;2023-04-02T12:56:04;102825.03;;;19.43;19.16
13013;BME280;22580;57.670;12.006;2023-04-02T12:58:54;102785.63;;;19.03;19.30
13013;BME280;22580;57.670;12.006;2023-04-02T13:01:28;102865.03;;;18.92;19.18
13013;BME280;22580;57.670;12.006;2023-04-02T13:07:05;102785.16;;;19.91;19.23
13013;BME280;22580;57.670;12.006;2023-04-02T13:09:52;102785.63;;;20.08;18.68
13013;BME280;22580;57.670;12.006;2023-04-02T13:12:24;102870.88;;;18.98;19.55
13013;BME280;22580;57.670;12.006;2023-04-02T13:14:53;102870.88;;;19.83;19.34
13013;BME280;22580;57.670;12.006;2023-04-02T13:18:00;102835.34;;;17.35;20.42
13013;BME280;22580;57.670;12.006;2023-04-02T13:20:35;102876.84;;;18.91;20.31
13013;BME280;22580;57.670;12.006;2023-04-02T13:23:33;102858.41;;;17.94;19.98
13013;BME280;22580;57.670;12.006;2023-04-02T13:26:10;102865.34;;;19.24;19.58
13013;BME280;22580;57.670;12.006;2023-04-02T13:28:53;102868.19;;;20.05;19.15
13013;BME280;22580;57.670;12.006;2023-04-02T13:31:31;102880.25;;;20.36;18.68
13013;BME280;22580;57.670;12.006;2023-04-02T13:34:00;102880.44;;;20.57;18.27
13013;BME280;22580;57.670;12.006;2023-04-02T13:36:32;102874.91;;;18.55;19.52
13013;BME280;22580;57.670;12.006;2023-04-02T13:39:03;102879.66;;;18.26;19.29
13013;BME280;22580;57.670;12.006;2023-04-02T13:41:33;102873.84;;;19.07;19.69
13013;BME280;22580;57.670;12.006;2023-04-02T13:44:03;102863.38;;;19.26;19.26
13013;BME280;22580;57.670;12.006;2023-04-02T13:46:33;102857.91;;;19.51;19.42
13013;BME280;22580;57.670;12.006;2023-04-02T13:49:00;102875.84;;;20.00;19.08
13013;BME280;22580;57.670;12.006;2023-04-02T13:51:43;102891.34;;;18.26;19.71
13013;BME280;22580;57.670;12.006;2023-04-02T13:57:05;102855.88;;;17.79;20.26
13013;BME280;22580;57.670;12.006;2023-04-02T13:59:45;102864.28;;;18.77;20.44
13013;BME280;22580;57.670;12.006;2023-04-02T14:02:24;102844.66;;;18.48;20.06
13013;BME280;22580;57.670;12.006;2023-04-02T14:04:54;102882.44;;;19.37;19.85
13013;BME280;22580;57.670;12.006;2023-04-02T14:07:42;102865.25;;;20.08;19.80
13013;BME280;22580;57.670;12.006;2023-04-02T14:13:54;102888.38;;;19.79;19.26
13013;BME280;22580;57.670;12.006;2023-04-02T14:16:45;102878.78;;;19.86;19.29
13013;BME280;22580;57.670;12.006;2023-04-02T14:19:32;102870.50;;;17.35;20.04
13013;BME280;22580;57.670;12.006;2023-04-02T14:22:14;102881.31;;;18.79;20.85
13013;BME280;22580;57.670;12.006;2023-04-02T14:25:02;102897.88;;;19.84;19.58
13013;BME280;22580;57.670;12.006;2023-04-02T14:27:43;102897.84;;;19.73;19.19
13013;BME280;22580;57.670;12.006;2023-04-02T14:30:26;102887.75;;;20.21;19.23